Burrton, Kansas
Current Conditions -  °F | °C
As of 12:52 PM on Friday 31 Oct 2014 (Local Time) from KHUT Reporting Station
Clear Clear  
Wind Chill:   Ceiling: Unl
Heat Index:   Visibility: 10mi
Dew Point: -6°   Wind: 10mph
Humidity: 43%   Direction: 30°NNE
Pressure: 30.51"   Gusts: 21mph
Location:  38.02°N, 97.67°W
Report Text: KHUT 311752Z 03009G18KT 350V060 10SM CLR 06/M06 A3051 RMK AO2 SLP330 T00611056 10067 20022 58002
Loading
Personal Weather Stations






























Interactive Weather Map
Tropical Storm Tracking
New forecast layout! Learn more

10-Day Weather Forecast

Advertisements
Track Severe Weather on mobile